^^
Station Historical Data
Daily Summary for April 24, 2017 Units:  English    Metric   Both
« Previous Day
Next Day »
Daily Weekly Monthly Yearly Custom
  High: Low: Average:
Temperature: 59.5 °F 44.2 °F 52.2 °F
Dew Point: 48.8 °F 39.8 °F 44.7 °F
Humidity: 90 % 52 % 76 %
Wind Speed: 5.6 mph 0.0 mph 0.9 mph
Wind Gust: 9.2 mph - -
Wind:- - ENE
Pressure: 30.17 in 30.09 in -
Precipitation: 0.03 in    
Historical Graphs
 
 
Tabular Data for April 24, 2017
Time Temperature Dew Point Pressure Wind Wind Speed Wind Gust Humidity Rainfall Rate (Hourly) solar Conditions
00:03 53.0 °F 43.5 °F 30.12 in Calm     70 % 0.00 in 0.0 W/m2 BKN
00:08 52.8 °F 43.7 °F 30.12 in Calm     71 % 0.00 in 0.0 W/m2 BKN
00:13 52.4 °F 43.3 °F 30.12 in Calm     71 % 0.00 in 0.0 W/m2 BKN
00:18 52.2 °F 43.4 °F 30.12 in Calm     72 % 0.00 in 0.0 W/m2 BKN
00:23 52.1 °F 43.3 °F 30.12 in Calm     72 % 0.00 in 0.0 W/m2 BKN
00:28 52.1 °F 43.7 °F 30.12 in South 0.3 mph 1.2 mph 73 % 0.00 in 0.0 W/m2 BKN
00:33 52.1 °F 43.7 °F 30.12 in Calm     73 % 0.00 in 0.0 W/m2 BKN
00:38 52.0 °F 43.6 °F 30.12 in South 0.9 mph 3.5 mph 73 % 0.00 in 0.0 W/m2 BKN
00:43 52.0 °F 44.0 °F 30.12 in South 0.7 mph 3.5 mph 74 % 0.00 in 0.0 W/m2 BKN
00:48 51.8 °F 43.8 °F 30.12 in Calm     74 % 0.00 in 0.0 W/m2 BKN
00:53 51.6 °F 43.9 °F 30.12 in Calm     75 % 0.00 in 0.0 W/m2 BKN
00:58 51.5 °F 44.2 °F 30.12 in Calm     76 % 0.00 in 0.0 W/m2 BKN
01:03 51.3 °F 44.3 °F 30.12 in South 0.2 mph 2.0 mph 77 % 0.00 in 0.0 W/m2 BKN
01:08 51.0 °F 44.7 °F 30.12 in Calm   3.5 mph 79 % 0.00 in 0.0 W/m2 BKN
01:13 50.9 °F 44.6 °F 30.12 in Calm     79 % 0.00 in 0.0 W/m2 BKN
01:18 50.7 °F 44.8 °F 30.12 in Calm     80 % 0.00 in 0.0 W/m2 BKN
01:23 50.5 °F 44.9 °F 30.12 in Calm     81 % 0.00 in 0.0 W/m2 BKN
01:28 50.4 °F 45.1 °F 30.12 in Calm     82 % 0.00 in 0.0 W/m2 BKN
01:33 50.1 °F 44.8 °F 30.11 in Calm     82 % 0.00 in 0.0 W/m2 BKN
01:38 49.8 °F 44.8 °F 30.11 in Calm     83 % 0.00 in 0.0 W/m2 BKN
01:43 49.5 °F 44.6 °F 30.11 in Calm     83 % 0.00 in 0.0 W/m2 BKN
01:48 49.1 °F 44.5 °F 30.11 in Calm     84 % 0.00 in 0.0 W/m2 BKN
01:53 48.9 °F 44.3 °F 30.11 in Calm     84 % 0.00 in 0.0 W/m2 BKN
01:58 48.6 °F 44.3 °F 30.10 in Calm     85 % 0.00 in 0.0 W/m2 BKN
02:03 48.3 °F 44.0 °F 30.10 in Calm     85 % 0.00 in 0.0 W/m2 BKN
02:08 47.8 °F 43.5 °F 30.10 in Calm     85 % 0.00 in 0.0 W/m2 BKN
02:13 47.6 °F 43.6 °F 30.10 in Calm     86 % 0.00 in 0.0 W/m2 BKN
02:18 47.1 °F 43.1 °F 30.10 in Calm     86 % 0.00 in 0.0 W/m2 BKN
02:23 46.8 °F 42.8 °F 30.10 in Calm     86 % 0.00 in 0.0 W/m2 BKN
02:28 46.5 °F 42.8 °F 30.11 in Calm     87 % 0.00 in 0.0 W/m2 BKN
02:33 46.3 °F 42.6 °F 30.11 in Calm     87 % 0.00 in 0.0 W/m2 BKN
02:38 46.2 °F 42.5 °F 30.11 in Calm     87 % 0.00 in 0.0 W/m2 BKN
02:43 46.4 °F 43.0 °F 30.11 in Calm     88 % 0.00 in 0.0 W/m2 BKN
02:48 46.2 °F 42.8 °F 30.11 in Calm     88 % 0.00 in 0.0 W/m2 BKN
02:53 45.9 °F 42.5 °F 30.10 in Calm     88 % 0.00 in 0.0 W/m2 BKN
02:59 45.8 °F 42.4 °F 30.11 in Calm     88 % 0.00 in 0.0 W/m2 BKN
03:04 45.6 °F 42.3 °F 30.10 in Calm     88 % 0.00 in 0.0 W/m2 BKN
03:09 45.4 °F 42.3 °F 30.10 in Calm     89 % 0.00 in 0.0 W/m2 BKN
03:14 45.3 °F 42.2 °F 30.10 in Calm     89 % 0.00 in 0.0 W/m2 BKN
03:19 45.1 °F 42.1 °F 30.10 in Calm     89 % 0.00 in 0.0 W/m2 BKN
03:24 44.4 °F 41.1 °F 30.10 in Calm     88 % 0.00 in 0.0 W/m2 BKN
03:29 44.2 °F 41.2 °F 30.10 in Calm     89 % 0.00 in 0.0 W/m2 BKN
03:34 44.4 °F 41.4 °F 30.10 in Calm     89 % 0.00 in 0.0 W/m2 BKN
03:39 44.4 °F 41.4 °F 30.10 in Calm     89 % 0.00 in 0.0 W/m2 BKN
03:44 44.4 °F 41.4 °F 30.10 in Calm     89 % 0.00 in 0.0 W/m2 BKN
03:49 44.5 °F 41.7 °F 30.10 in Calm     90 % 0.00 in 0.0 W/m2 BKN
03:54 44.6 °F 41.8 °F 30.10 in Calm     90 % 0.00 in 0.0 W/m2 BKN
03:59 44.4 °F 41.4 °F 30.10 in Calm     89 % 0.00 in 0.0 W/m2 BKN
04:04 44.4 °F 41.7 °F 30.10 in Calm     90 % 0.00 in 0.0 W/m2 BKN
04:09 44.6 °F 41.6 °F 30.10 in Calm     89 % 0.00 in 0.0 W/m2 BKN
04:14 44.6 °F 41.6 °F 30.10 in Calm     89 % 0.00 in 0.0 W/m2 BKN
04:19 44.6 °F 41.6 °F 30.11 in Calm     89 % 0.00 in 0.0 W/m2 BKN
04:24 44.8 °F 41.8 °F 30.10 in Calm     89 % 0.00 in 0.0 W/m2 BKN
04:29 44.9 °F 41.9 °F 30.10 in Calm     89 % 0.00 in 0.0 W/m2 BKN
04:34 45.1 °F 42.1 °F 30.10 in Calm     89 % 0.00 in 0.0 W/m2 BKN
04:39 45.2 °F 42.2 °F 30.10 in Calm     89 % 0.00 in 0.0 W/m2 BKN
04:44 45.1 °F 41.8 °F 30.10 in Calm     88 % 0.00 in 0.0 W/m2 BKN
04:49 45.1 °F 42.1 °F 30.11 in Calm     89 % 0.00 in 0.0 W/m2 BKN
04:54 45.3 °F 42.2 °F 30.11 in Calm     89 % 0.00 in 0.0 W/m2 BKN
04:59 45.4 °F 42.3 °F 30.11 in Calm     89 % 0.00 in 0.0 W/m2 BKN
05:04 45.6 °F 42.5 °F 30.11 in Calm     89 % 0.00 in 0.0 W/m2 BKN
05:09 45.6 °F 42.5 °F 30.12 in Calm     89 % 0.00 in 0.0 W/m2 BKN
05:14 45.6 °F 42.5 °F 30.11 in Calm     89 % 0.00 in 0.0 W/m2 BKN
05:19 45.7 °F 42.6 °F 30.11 in Calm     89 % 0.00 in 0.0 W/m2 BKN
05:24 45.8 °F 42.7 °F 30.11 in Calm     89 % 0.00 in 0.0 W/m2 BKN
05:29 45.9 °F 42.8 °F 30.11 in Calm     89 % 0.00 in 0.0 W/m2 BKN
05:34 46.0 °F 42.9 °F 30.11 in Calm     89 % 0.00 in 0.0 W/m2 BKN
05:39 46.0 °F 42.9 °F 30.12 in Calm     89 % 0.00 in 0.0 W/m2 BKN
05:44 46.1 °F 43.0 °F 30.11 in Calm     89 % 0.00 in 0.0 W/m2 BKN
05:49 46.0 °F 42.9 °F 30.11 in Calm     89 % 0.00 in 0.0 W/m2 BKN
05:54 46.0 °F 42.9 °F 30.12 in Calm     89 % 0.00 in 0.0 W/m2 BKN
05:59 46.1 °F 43.3 °F 30.12 in Calm     90 % 0.00 in 0.0 W/m2 BKN
06:04 46.2 °F 43.4 °F 30.12 in Calm     90 % 0.00 in 5.0 W/m2 BKN
06:09 46.2 °F 43.4 °F 30.13 in Calm     90 % 0.00 in 9.0 W/m2 BKN
06:15 46.3 °F 43.5 °F 30.13 in Calm     90 % 0.00 in 9.0 W/m2 BKN
06:20 46.3 °F 43.5 °F 30.13 in Calm     90 % 0.00 in 9.0 W/m2 BKN
06:25 46.4 °F 43.6 °F 30.13 in Calm     90 % 0.00 in 9.0 W/m2 BKN
06:30 46.4 °F 43.6 °F 30.13 in Calm     90 % 0.00 in 11.0 W/m2 BKN
06:35 46.5 °F 43.7 °F 30.14 in Calm     90 % 0.00 in 14.0 W/m2 SCT
06:40 46.4 °F 43.6 °F 30.14 in Calm     90 % 0.00 in 19.0 W/m2 SCT
06:45 46.5 °F 43.7 °F 30.15 in Calm     90 % 0.00 in 19.0 W/m2 BKN
06:50 46.5 °F 43.7 °F 30.15 in Calm     90 % 0.00 in 19.0 W/m2 BKN
06:55 46.5 °F 43.7 °F 30.15 in Calm     90 % 0.00 in 23.0 W/m2 OVC
07:00 46.6 °F 43.8 °F 30.15 in Calm     90 % 0.00 in 25.0 W/m2 BKN
07:05 46.7 °F 43.9 °F 30.14 in Calm   2.3 mph 90 % 0.00 in 26.0 W/m2 BKN
07:10 46.8 °F 44.0 °F 30.15 in Calm   1.0 mph 90 % 0.00 in 32.0 W/m2 OVC
07:15 47.0 °F 44.2 °F 30.15 in Calm     90 % 0.00 in 37.0 W/m2 BKN
07:20 47.0 °F 44.2 °F 30.15 in Calm     90 % 0.00 in 44.0 W/m2 OVC
07:25 47.0 °F 44.2 °F 30.15 in Calm     90 % 0.00 in 53.0 W/m2 BKN
07:30 47.1 °F 44.3 °F 30.15 in Calm     90 % 0.00 in 60.0 W/m2 BKN
07:35 47.1 °F 44.3 °F 30.15 in Calm     90 % 0.00 in 67.0 W/m2 BKN
07:45 47.1 °F 44.3 °F 30.15 in Calm     90 % 0.00 in 93.0 W/m2 BKN
07:50 47.2 °F 44.4 °F 30.15 in Calm     90 % 0.00 in 105.0 W/m2 SCT
07:52 47.2 °F 44.4 °F 30.15 in Calm     90 % 0.00 in 111.0 W/m2 SCT
07:57 47.2 °F 44.4 °F 30.15 in Calm     90 % 0.00 in 113.0 W/m2 BKN
08:02 47.4 °F 44.6 °F 30.15 in Calm     90 % 0.00 in 116.0 W/m2 BKN
08:07 47.5 °F 44.4 °F 30.15 in Calm     89 % 0.00 in 127.0 W/m2 BKN
08:12 47.5 °F 44.4 °F 30.15 in NNE 1.9 mph 3.5 mph 89 % 0.00 in 137.0 W/m2 BKN
08:17 47.5 °F 44.4 °F 30.15 in NNE 3.3 mph 3.5 mph 89 % 0.00 in 146.0 W/m2 SCT
08:22 47.7 °F 44.6 °F 30.16 in NNE 2.6 mph 3.5 mph 89 % 0.00 in 158.0 W/m2 SCT
08:27 47.8 °F 44.7 °F 30.16 in NNE 0.4 mph 2.3 mph 89 % 0.00 in 165.0 W/m2 SCT
08:32 48.1 °F 45.0 °F 30.16 in NNE 1.8 mph 4.0 mph 89 % 0.00 in 165.0 W/m2 BKN
08:37 48.1 °F 45.0 °F 30.16 in Calm   1.2 mph 89 % 0.00 in 174.0 W/m2 BKN
08:42 48.8 °F 45.7 °F 30.16 in NNE 2.5 mph 3.5 mph 89 % 0.00 in 172.0 W/m2 BKN
08:47 48.9 °F 45.5 °F 30.16 in NNE 3.8 mph 4.6 mph 88 % 0.00 in 192.0 W/m2 SCT
08:52 49.1 °F 45.7 °F 30.16 in North 2.7 mph 3.5 mph 88 % 0.00 in 214.0 W/m2 SCT
08:57 49.2 °F 45.8 °F 30.16 in North 0.8 mph 2.3 mph 88 % 0.00 in 229.0 W/m2 SCT
09:02 49.5 °F 46.1 °F 30.17 in Calm   1.0 mph 88 % 0.00 in 243.0 W/m2 SCT
09:07 49.9 °F 46.5 °F 30.17 in NNE 1.4 mph 3.5 mph 88 % 0.00 in 243.0 W/m2 SCT
09:12 49.8 °F 46.1 °F 30.17 in NNE 0.3 mph 3.5 mph 87 % 0.00 in 213.0 W/m2 BKN
09:18 50.4 °F 46.7 °F 30.17 in NNE 3.1 mph 3.5 mph 87 % 0.00 in 220.0 W/m2 BKN
09:20 50.6 °F 46.9 °F 30.17 in NNE 3.6 mph 4.6 mph 87 % 0.00 in 220.0 W/m2 BKN
09:25 50.6 °F 46.9 °F 30.17 in NNE 2.3 mph 3.5 mph 87 % 0.00 in 195.0 W/m2 BKN
09:30 50.8 °F 46.8 °F 30.17 in NNE 2.5 mph 3.5 mph 86 % 0.00 in 169.0 W/m2 BKN
09:35 50.7 °F 46.7 °F 30.17 in NNE 1.6 mph 4.6 mph 86 % 0.00 in 163.0 W/m2 BKN
09:40 51.0 °F 46.6 °F 30.17 in NNE 0.3 mph 3.5 mph 85 % 0.00 in 181.0 W/m2 BKN
09:45 51.1 °F 46.7 °F 30.17 in NNE 3.1 mph 3.5 mph 85 % 0.00 in 229.0 W/m2 BKN
09:50 51.5 °F 47.1 °F 30.17 in NNE 1.6 mph 3.0 mph 85 % 0.00 in 279.0 W/m2 BKN
09:55 51.9 °F 47.2 °F 30.16 in NNE 2.8 mph 3.5 mph 84 % 0.00 in 308.0 W/m2 SCT
10:00 52.1 °F 47.4 °F 30.16 in NNE 0.3 mph 2.0 mph 84 % 0.00 in 329.0 W/m2 SCT
10:05 52.4 °F 46.7 °F 30.16 in NNE 0.7 mph 2.3 mph 81 % 0.00 in 364.0 W/m2 SCT
10:10 52.8 °F 46.8 °F 30.16 in NE 0.8 mph 3.5 mph 80 % 0.00 in 334.0 W/m2 SCT
10:15 53.0 °F 47.0 °F 30.16 in Calm   1.2 mph 80 % 0.00 in 332.0 W/m2 SCT
10:20 53.7 °F 47.7 °F 30.16 in NE 0.6 mph 3.0 mph 80 % 0.00 in 316.0 W/m2 SCT
10:25 53.8 °F 47.1 °F 30.16 in NNE 2.6 mph 4.6 mph 78 % 0.00 in 316.0 W/m2 BKN
10:30 53.6 °F 46.9 °F 30.16 in NNE 0.4 mph 3.5 mph 78 % 0.00 in 315.0 W/m2 BKN
10:35 53.8 °F 46.8 °F 30.16 in Calm     77 % 0.00 in 323.0 W/m2 BKN
10:37 53.9 °F 47.2 °F 30.16 in Calm     78 % 0.00 in 323.0 W/m2 BKN
10:42 54.1 °F 47.4 °F 30.16 in Calm     78 % 0.00 in 311.0 W/m2 BKN
10:47 55.0 °F 48.3 °F 30.16 in Calm     78 % 0.00 in 292.0 W/m2 BKN
10:52 55.1 °F 47.3 °F 30.16 in ENE 1.4 mph 3.5 mph 75 % 0.00 in 311.0 W/m2 BKN
10:57 55.6 °F 47.8 °F 30.16 in NNE 2.3 mph 4.0 mph 75 % 0.00 in 318.0 W/m2 BKN
11:02 55.5 °F 46.6 °F 30.16 in East 1.1 mph 3.5 mph 72 % 0.00 in 311.0 W/m2 BKN
11:07 55.8 °F 47.3 °F 30.15 in NNE 2.2 mph 3.5 mph 73 % 0.00 in 295.0 W/m2 BKN
11:12 56.0 °F 47.8 °F 30.15 in NNE 4.6 mph 6.9 mph 74 % 0.00 in 283.0 W/m2 BKN
11:17 56.2 °F 47.7 °F 30.15 in NNE 3.5 mph 4.6 mph 73 % 0.00 in 272.0 W/m2 BKN
11:22 56.4 °F 47.9 °F 30.15 in NNE 1.9 mph 3.5 mph 73 % 0.00 in 301.0 W/m2 BKN
11:27 56.8 °F 47.9 °F 30.15 in NNE 2.5 mph 3.5 mph 72 % 0.00 in 297.0 W/m2 BKN
11:32 57.0 °F 48.1 °F 30.15 in NNE 4.9 mph 8.1 mph 72 % 0.00 in 269.0 W/m2 BKN
11:37 56.7 °F 47.4 °F 30.15 in North 0.1 mph 1.2 mph 71 % 0.00 in 250.0 W/m2 BKN
11:42 57.0 °F 47.3 °F 30.15 in NNE 3.4 mph 6.0 mph 70 % 0.00 in 264.0 W/m2 BKN
11:47 56.9 °F 47.6 °F 30.15 in NE 4.1 mph 8.1 mph 71 % 0.00 in 288.0 W/m2 BKN
11:52 57.1 °F 47.8 °F 30.14 in NNE 3.9 mph 8.1 mph 71 % 0.00 in 288.0 W/m2 BKN
11:57 57.3 °F 48.0 °F 30.15 in NNE 2.9 mph 4.0 mph 71 % 0.00 in 274.0 W/m2 BKN
12:02 57.2 °F 47.5 °F 30.14 in NNE 2.2 mph 5.0 mph 70 % 0.00 in 258.0 W/m2 BKN
12:07 57.5 °F 47.8 °F 30.14 in NE 3.7 mph 5.8 mph 70 % 0.00 in 265.0 W/m2 BKN
12:12 57.4 °F 47.3 °F 30.14 in NNE 2.2 mph 3.5 mph 69 % 0.00 in 258.0 W/m2 BKN
12:17 57.8 °F 47.7 °F 30.14 in NE 1.6 mph 3.5 mph 69 % 0.00 in 262.0 W/m2 BKN
12:22 57.8 °F 47.7 °F 30.14 in NE 0.7 mph 3.5 mph 69 % 0.00 in 271.0 W/m2 BKN
12:27 57.9 °F 47.4 °F 30.14 in NE 2.6 mph 4.0 mph 68 % 0.00 in 272.0 W/m2 BKN
12:32 58.0 °F 47.5 °F 30.14 in NE 2.6 mph 3.5 mph 68 % 0.00 in 292.0 W/m2 BKN
12:37 58.0 °F 47.9 °F 30.13 in Calm   1.2 mph 69 % 0.00 in 315.0 W/m2 BKN
12:42 58.6 °F 48.8 °F 30.13 in Calm     70 % 0.00 in 313.0 W/m2 BKN
12:47 58.9 °F 48.4 °F 30.13 in ENE 1.7 mph 2.3 mph 68 % 0.00 in 301.0 W/m2 BKN
12:52 58.7 °F 47.8 °F 30.13 in NNE 3.0 mph 3.5 mph 67 % 0.00 in 285.0 W/m2 BKN
12:57 58.9 °F 48.0 °F 30.13 in NE 1.5 mph 3.5 mph 67 % 0.00 in 283.0 W/m2 BKN
13:02 58.9 °F 47.6 °F 30.13 in NNE 2.2 mph 3.5 mph 66 % 0.00 in 302.0 W/m2 BKN
13:07 59.2 °F 47.4 °F 30.13 in East 2.3 mph 3.5 mph 65 % 0.00 in 279.0 W/m2 BKN
13:12 59.4 °F 47.6 °F 30.13 in NE 0.9 mph 4.6 mph 65 % 0.00 in 257.0 W/m2 BKN
13:17 59.4 °F 47.6 °F 30.13 in ENE 0.7 mph 1.2 mph 65 % 0.00 in 258.0 W/m2 BKN
13:20 59.4 °F 47.2 °F 30.13 in East 1.8 mph 3.5 mph 64 % 0.00 in 255.0 W/m2 BKN
13:25 59.3 °F 47.1 °F 30.13 in South 1.5 mph 4.6 mph 64 % 0.00 in 239.0 W/m2 BKN
13:30 59.3 °F 47.5 °F 30.13 in SE 0.9 mph 3.5 mph 65 % 0.00 in 220.0 W/m2 OVC
13:35 59.0 °F 46.8 °F 30.13 in SE 0.6 mph 3.5 mph 64 % 0.00 in 195.0 W/m2 OVC
13:40 59.0 °F 46.4 °F 30.13 in SSE 0.2 mph 1.2 mph 63 % 0.00 in 195.0 W/m2 OVC
13:45 58.8 °F 46.6 °F 30.13 in Calm     64 % 0.00 in 204.0 W/m2 OVC
13:50 58.9 °F 46.7 °F 30.13 in Calm   1.2 mph 64 % 0.00 in 213.0 W/m2 OVC
13:55 58.8 °F 46.6 °F 30.12 in East 0.3 mph 2.0 mph 64 % 0.00 in 214.0 W/m2 OVC
14:00 58.8 °F 45.8 °F 30.13 in East 1.6 mph 3.5 mph 62 % 0.00 in 223.0 W/m2 OVC
14:05 59.1 °F 46.5 °F 30.13 in NE 0.7 mph 3.0 mph 63 % 0.00 in 246.0 W/m2 BKN
14:10 59.5 °F 46.0 °F 30.13 in NNE 1.8 mph 3.5 mph 61 % 0.00 in 236.0 W/m2 BKN
14:15 59.4 °F 45.1 °F 30.12 in ENE 2.7 mph 7.0 mph 59 % 0.00 in 234.0 W/m2 BKN
14:20 59.3 °F 45.0 °F 30.12 in NE 2.5 mph 5.8 mph 59 % 0.00 in 221.0 W/m2 BKN
14:25 59.3 °F 45.0 °F 30.13 in NE 1.1 mph 5.0 mph 59 % 0.00 in 204.0 W/m2 OVC
14:30 59.4 °F 44.6 °F 30.13 in NE 4.8 mph 8.1 mph 58 % 0.00 in 211.0 W/m2 OVC
14:35 59.3 °F 42.2 °F 30.13 in ENE 3.0 mph 7.0 mph 53 % 0.00 in 199.0 W/m2 OVC
14:40 59.1 °F 41.5 °F 30.14 in East 2.7 mph 3.5 mph 52 % 0.00 in 197.0 W/m2 OVC
14:45 58.7 °F 42.6 °F 30.14 in ENE 1.0 mph 3.5 mph 55 % 0.00 in 183.0 W/m2 OVC
14:50 58.5 °F 42.4 °F 30.14 in ESE 1.8 mph 3.5 mph 55 % 0.00 in 188.0 W/m2 OVC
14:55 58.3 °F 44.9 °F 30.14 in ENE 0.6 mph 2.0 mph 61 % 0.00 in 207.0 W/m2 OVC
15:00 58.1 °F 44.3 °F 30.14 in NE 0.1 mph 1.2 mph 60 % 0.00 in 204.0 W/m2 OVC
15:05 58.1 °F 45.6 °F 30.14 in NE 0.5 mph 2.0 mph 63 % 0.00 in 200.0 W/m2 OVC
15:10 58.0 °F 45.9 °F 30.14 in NNE 5.2 mph 5.8 mph 64 % 0.00 in 202.0 W/m2 OVC
15:12 57.9 °F 45.4 °F 30.14 in NE 3.5 mph 4.6 mph 63 % 0.00 in 209.0 W/m2 BKN
15:17 57.5 °F 45.4 °F 30.13 in Calm   3.5 mph 64 % 0.00 in 239.0 W/m2 BKN
15:22 57.2 °F 45.5 °F 30.13 in NE 2.9 mph 5.8 mph 65 % 0.00 in 269.0 W/m2 BKN
15:27 57.3 °F 45.6 °F 30.13 in NE 2.8 mph 5.8 mph 65 % 0.01 in 251.0 W/m2 RA
15:32 57.3 °F 46.0 °F 30.13 in NE 5.6 mph 9.2 mph 66 % 0.01 in 229.0 W/m2 RA
15:37 57.1 °F 45.8 °F 30.13 in Calm   3.5 mph 66 % 0.01 in 202.0 W/m2 BKN
15:42 56.9 °F 45.3 °F 30.13 in Calm   2.3 mph 65 % 0.01 in 197.0 W/m2 BKN
15:47 56.9 °F 46.1 °F 30.12 in East 2.3 mph 3.5 mph 67 % 0.01 in 255.0 W/m2 BKN
15:52 56.6 °F 46.2 °F 30.12 in ENE 1.4 mph 2.3 mph 68 % 0.01 in 234.0 W/m2 BKN
15:54 56.5 °F 46.4 °F 30.12 in Calm     69 % 0.01 in 232.0 W/m2 BKN
15:59 56.2 °F 46.2 °F 30.12 in SE 1.1 mph 3.5 mph 69 % 0.01 in 283.0 W/m2 BKN
16:04 56.1 °F 46.1 °F 30.12 in SE 3.1 mph 7.0 mph 69 % 0.01 in 265.0 W/m2 BKN
16:09 55.9 °F 45.5 °F 30.11 in ESE 1.9 mph 3.5 mph 68 % 0.01 in 288.0 W/m2 BKN
16:14 56.1 °F 45.7 °F 30.11 in ESE 1.4 mph 3.5 mph 68 % 0.01 in 250.0 W/m2 BKN
16:19 56.3 °F 45.9 °F 30.11 in SE 2.3 mph 3.5 mph 68 % 0.01 in 188.0 W/m2 BKN
16:24 56.5 °F 45.7 °F 30.12 in SE 3.3 mph 4.0 mph 67 % 0.00 in 195.0 W/m2 BKN
16:29 56.3 °F 45.1 °F 30.11 in SE 2.3 mph 4.6 mph 66 % 0.00 in 239.0 W/m2 BKN
16:34 56.4 °F 45.6 °F 30.12 in ESE 1.1 mph 6.9 mph 67 % 0.00 in 183.0 W/m2 BKN
16:39 56.3 °F 45.9 °F 30.12 in ENE 1.2 mph 2.3 mph 68 % 0.00 in 141.0 W/m2 OVC
16:44 56.1 °F 46.1 °F 30.12 in SE 0.2 mph 1.2 mph 69 % 0.00 in 155.0 W/m2 BKN
16:49 55.6 °F 45.6 °F 30.12 in ESE 0.2 mph   69 % 0.00 in 142.0 W/m2 BKN
16:54 55.6 °F 46.0 °F 30.12 in ENE 0.4 mph   70 % 0.00 in 141.0 W/m2 BKN
16:59 55.6 °F 46.0 °F 30.11 in NE 1.7 mph 2.0 mph 70 % 0.00 in 149.0 W/m2 BKN
17:04 55.9 °F 46.3 °F 30.12 in East 1.8 mph 3.5 mph 70 % 0.00 in 156.0 W/m2 BKN
17:09 56.0 °F 46.0 °F 30.12 in NNE 2.4 mph 4.6 mph 69 % 0.00 in 118.0 W/m2 BKN
17:14 56.2 °F 46.5 °F 30.12 in Calm     70 % 0.00 in 113.0 W/m2 OVC
17:19 56.1 °F 45.7 °F 30.12 in East 2.0 mph 3.5 mph 68 % 0.00 in 109.0 W/m2 OVC
17:24 56.1 °F 45.7 °F 30.12 in ESE 1.4 mph 4.0 mph 68 % 0.00 in 109.0 W/m2 BKN
17:29 56.1 °F 45.3 °F 30.11 in ESE 1.1 mph 3.5 mph 67 % 0.00 in 104.0 W/m2 OVC
17:34 56.1 °F 45.7 °F 30.11 in Calm     68 % 0.00 in 91.0 W/m2 OVC
17:39 56.2 °F 45.8 °F 30.11 in Calm   2.3 mph 68 % 0.00 in 77.0 W/m2 OVC
17:44 55.9 °F 45.5 °F 30.12 in East 1.1 mph 3.0 mph 68 % 0.00 in 86.0 W/m2 OVC
17:49 55.8 °F 45.0 °F 30.12 in ESE 0.1 mph 3.5 mph 67 % 0.00 in 88.0 W/m2 BKN
17:54 55.5 °F 45.1 °F 30.11 in NE 3.4 mph 4.0 mph 68 % 0.00 in 86.0 W/m2 BKN
17:59 54.9 °F 44.1 °F 30.11 in ENE 0.4 mph 3.5 mph 67 % 0.01 in 65.0 W/m2 RA
18:04 54.3 °F 44.7 °F 30.11 in Calm   1.2 mph 70 % 0.01 in 42.0 W/m2 RA
18:10 53.7 °F 44.5 °F 30.11 in East 1.0 mph 4.0 mph 71 % 0.01 in 33.0 W/m2 RA
18:15 53.3 °F 44.5 °F 30.11 in NE 1.4 mph 3.5 mph 72 % 0.02 in 23.0 W/m2 RA
18:20 52.9 °F 44.5 °F 30.11 in Calm   2.3 mph 73 % 0.02 in 19.0 W/m2 RA
18:24 52.9 °F 44.8 °F 30.11 in NE 0.9 mph 4.0 mph 74 % 0.02 in 19.0 W/m2
18:29 53.1 °F 45.0 °F 30.11 in NNE 2.3 mph 4.0 mph 74 % 0.02 in 21.0 W/m2 OVC
18:35 53.3 °F 45.2 °F 30.10 in NNE 2.0 mph 6.0 mph 74 % 0.00 in 21.0 W/m2 OVC
18:40 53.5 °F 45.4 °F 30.10 in NE 0.5 mph 4.6 mph 74 % 0.02 in 21.0 W/m2 OVC
18:45 53.5 °F 45.4 °F 30.10 in NNE 0.8 mph 3.5 mph 74 % 0.02 in 25.0 W/m2 OVC
18:50 53.7 °F 45.6 °F 30.10 in NNE 1.0 mph 3.0 mph 74 % 0.00 in 25.0 W/m2 OVC
18:55 53.7 °F 45.6 °F 30.10 in NNE 0.2 mph 2.3 mph 74 % 0.02 in 28.0 W/m2 OVC
19:00 53.7 °F 45.2 °F 30.10 in Calm     73 % 0.01 in 33.0 W/m2 BKN
19:05 53.8 °F 45.0 °F 30.10 in Calm   1.0 mph 72 % 0.00 in 32.0 W/m2 OVC
19:10 54.0 °F 45.5 °F 30.10 in NE 1.0 mph 4.0 mph 73 % 0.00 in 28.0 W/m2 OVC
19:15 54.1 °F 45.6 °F 30.10 in NNE 0.5 mph 3.5 mph 73 % 0.00 in 25.0 W/m2 BKN
19:20 54.2 °F 46.1 °F 30.10 in Calm   3.0 mph 74 % 0.00 in 16.0 W/m2 OVC
19:25 54.2 °F 46.1 °F 30.10 in NNE 2.0 mph 3.0 mph 74 % 0.00 in 11.0 W/m2 OVC
19:30 54.1 °F 46.0 °F 30.10 in Calm     74 % 0.00 in 7.0 W/m2 OVC
19:35 54.0 °F 45.5 °F 30.09 in ENE 0.7 mph 3.5 mph 73 % 0.00 in 5.0 W/m2 OVC
19:40 54.3 °F 45.8 °F 30.10 in Calm   2.3 mph 73 % 0.00 in 5.0 W/m2 OVC
19:44 54.2 °F 45.4 °F 30.10 in NE 1.5 mph 2.0 mph 72 % 0.00 in 0.0 W/m2 OVC
19:50 54.3 °F 45.1 °F 30.10 in ENE 2.0 mph 4.0 mph 71 % 0.00 in 0.0 W/m2 OVC
19:55 54.5 °F 44.5 °F 30.10 in ENE 2.0 mph 5.0 mph 69 % 0.00 in 0.0 W/m2 OVC
20:00 54.6 °F 44.6 °F 30.10 in ENE 0.8 mph 3.5 mph 69 % 0.00 in 0.0 W/m2 CLR
20:05 54.6 °F 44.2 °F 30.10 in Calm     68 % 0.00 in 0.0 W/m2 CLR
20:10 54.6 °F 43.9 °F 30.10 in Calm   1.2 mph 67 % 0.00 in 0.0 W/m2 CLR
20:15 54.4 °F 43.7 °F 30.10 in Calm     67 % 0.00 in 0.0 W/m2 CLR
20:20 54.4 °F 44.1 °F 30.11 in Calm   1.2 mph 68 % 0.00 in 0.0 W/m2 CLR
20:25 54.3 °F 44.0 °F 30.11 in Calm     68 % 0.00 in 0.0 W/m2 CLR
20:30 54.1 °F 43.8 °F 30.11 in Calm     68 % 0.00 in 0.0 W/m2 CLR
20:35 53.9 °F 44.0 °F 30.11 in NE 0.6 mph 4.0 mph 69 % 0.00 in 0.0 W/m2 CLR
20:40 53.7 °F 44.5 °F 30.11 in Calm     71 % 0.00 in 0.0 W/m2 CLR
20:45 53.6 °F 44.4 °F 30.11 in NE 1.2 mph 3.5 mph 71 % 0.00 in 0.0 W/m2 CLR
20:50 53.4 °F 44.2 °F 30.11 in Calm   2.3 mph 71 % 0.00 in 0.0 W/m2 CLR
20:55 53.4 °F 44.6 °F 30.11 in ENE 0.1 mph 3.0 mph 72 % 0.00 in 0.0 W/m2 CLR
21:00 53.3 °F 44.5 °F 30.11 in Calm     72 % 0.00 in 0.0 W/m2 CLR
21:05 53.3 °F 44.9 °F 30.11 in Calm     73 % 0.00 in 0.0 W/m2 CLR
21:10 53.2 °F 44.8 °F 30.11 in Calm     73 % 0.00 in 0.0 W/m2 CLR
21:15 53.1 °F 44.7 °F 30.11 in ENE 0.3 mph 2.3 mph 73 % 0.00 in 0.0 W/m2 CLR
21:20 53.0 °F 44.6 °F 30.11 in NE 0.4 mph 2.3 mph 73 % 0.00 in 0.0 W/m2 CLR
21:25 52.9 °F 44.8 °F 30.11 in Calm   1.2 mph 74 % 0.00 in 0.0 W/m2 CLR
21:30 52.9 °F 44.5 °F 30.11 in NE 0.5 mph 3.5 mph 73 % 0.00 in 0.0 W/m2 CLR
21:35 52.9 °F 44.8 °F 30.11 in ENE 2.5 mph 4.6 mph 74 % 0.00 in 0.0 W/m2 CLR
21:40 52.9 °F 44.8 °F 30.11 in NE 1.9 mph 3.5 mph 74 % 0.00 in 0.0 W/m2 CLR
21:45 52.9 °F 44.5 °F 30.11 in NE 1.7 mph 3.5 mph 73 % 0.00 in 0.0 W/m2 CLR
21:50 52.8 °F 44.4 °F 30.11 in NE 0.5 mph 2.3 mph 73 % 0.00 in 0.0 W/m2 CLR
21:55 52.8 °F 44.4 °F 30.11 in NE 1.3 mph 3.5 mph 73 % 0.00 in 0.0 W/m2 CLR
22:00 52.8 °F 44.4 °F 30.11 in Calm     73 % 0.00 in 0.0 W/m2 CLR
22:05 52.8 °F 44.4 °F 30.11 in NE 0.3 mph 3.5 mph 73 % 0.00 in 0.0 W/m2 CLR
22:10 52.8 °F 44.4 °F 30.11 in Calm     73 % 0.00 in 0.0 W/m2 CLR
22:15 52.8 °F 44.4 °F 30.11 in NE 0.7 mph 4.0 mph 73 % 0.00 in 0.0 W/m2 CLR
22:20 52.8 °F 44.0 °F 30.11 in NE 0.4 mph 2.3 mph 72 % 0.00 in 0.0 W/m2 CLR
22:25 52.8 °F 43.7 °F 30.11 in ENE 1.7 mph 3.5 mph 71 % 0.00 in 0.0 W/m2 CLR
22:30 52.8 °F 43.7 °F 30.11 in NE 0.4 mph 2.3 mph 71 % 0.00 in 0.0 W/m2 CLR
22:35 52.8 °F 43.3 °F 30.11 in NE 1.5 mph 3.5 mph 70 % 0.00 in 0.0 W/m2 CLR
22:40 52.7 °F 42.8 °F 30.11 in East 0.3 mph 5.8 mph 69 % 0.00 in 0.0 W/m2 CLR
22:45 52.7 °F 42.4 °F 30.10 in NE 2.1 mph 3.5 mph 68 % 0.00 in 0.0 W/m2 CLR
22:50 52.6 °F 41.9 °F 30.10 in NE 1.7 mph 3.5 mph 67 % 0.00 in 0.0 W/m2 CLR
22:55 52.6 °F 41.9 °F 30.10 in NE 2.0 mph 3.5 mph 67 % 0.00 in 0.0 W/m2 CLR
23:00 52.6 °F 41.9 °F 30.10 in ENE 2.6 mph 9.0 mph 67 % 0.00 in 0.0 W/m2 CLR
23:05 52.5 °F 41.5 °F 30.10 in ENE 0.6 mph 2.3 mph 66 % 0.00 in 0.0 W/m2 CLR
23:10 52.5 °F 41.5 °F 30.10 in Calm     66 % 0.00 in 0.0 W/m2 CLR
23:15 52.5 °F 40.7 °F 30.10 in NE 2.0 mph 4.6 mph 64 % 0.00 in 0.0 W/m2 CLR
23:20 52.5 °F 40.7 °F 30.09 in NNE 0.9 mph 3.0 mph 64 % 0.00 in 0.0 W/m2 CLR
23:25 52.5 °F 40.7 °F 30.09 in NE 1.9 mph 5.8 mph 64 % 0.00 in 0.0 W/m2 CLR
23:30 52.5 °F 40.3 °F 30.09 in ENE 1.9 mph 4.6 mph 63 % 0.00 in 0.0 W/m2 CLR
23:35 52.5 °F 40.3 °F 30.09 in Calm   1.2 mph 63 % 0.00 in 0.0 W/m2 CLR
23:40 52.4 °F 40.2 °F 30.09 in NE 1.5 mph 3.5 mph 63 % 0.00 in 0.0 W/m2 CLR
23:45 52.5 °F 40.3 °F 30.09 in NE 1.1 mph 3.0 mph 63 % 0.00 in 0.0 W/m2 CLR
23:50 52.4 °F 39.8 °F 30.09 in ENE 1.8 mph 3.5 mph 62 % 0.00 in 0.0 W/m2 CLR
23:55 52.4 °F 39.8 °F 30.09 in NE 0.8 mph 3.5 mph 62 % 0.00 in 0.0 W/m2 CLR
Air Products Campus Weather
Compliments of Weather Underground - 3.5 mb